createdAt,value
2022-08-26T00:01:24.342Z,22.88
2022-08-26T00:03:56.580Z,20.73
2022-08-26T00:06:23.349Z,17.50
2022-08-26T00:08:50.174Z,18.00
2022-08-26T00:11:26.749Z,16.33
2022-08-26T00:13:57.337Z,22.85
2022-08-26T00:16:27.007Z,22.63
2022-08-26T00:18:54.305Z,18.42
2022-08-26T00:21:21.220Z,20.55
2022-08-26T00:23:48.464Z,21.83
2022-08-26T00:26:15.406Z,21.83
2022-08-26T00:28:42.398Z,22.20
2022-08-26T00:31:11.134Z,20.83
2022-08-26T00:33:41.196Z,18.50
2022-08-26T00:36:09.398Z,16.92
2022-08-26T00:38:46.861Z,20.02
2022-08-26T00:41:13.718Z,15.52
2022-08-26T00:43:47.485Z,17.83
2022-08-26T00:46:19.648Z,20.25
2022-08-26T00:48:50.021Z,20.42
2022-08-26T00:51:24.504Z,24.42
2022-08-26T00:54:05.414Z,21.38
2022-08-26T00:56:38.134Z,18.45
2022-08-26T00:59:13.246Z,20.40
2022-08-26T01:01:42.700Z,21.30
2022-08-26T01:04:17.580Z,18.90
2022-08-26T01:06:45.349Z,20.40
2022-08-26T01:09:12.488Z,23.15
2022-08-26T01:11:39.676Z,21.20
2022-08-26T01:14:07.912Z,24.92
2022-08-26T01:16:35.866Z,19.00
2022-08-26T01:19:28.638Z,26.08
2022-08-26T01:22:18.486Z,25.35
2022-08-26T01:24:46.053Z,24.35
2022-08-26T01:27:18.170Z,21.10
2022-08-26T01:29:48.737Z,21.13
2022-08-26T01:32:22.104Z,23.35
2022-08-26T01:34:50.309Z,26.83
2022-08-26T01:37:20.147Z,22.02
2022-08-26T01:39:52.021Z,19.67
2022-08-26T01:42:20.877Z,21.20
2022-08-26T01:45:19.870Z,17.77
2022-08-26T01:47:49.740Z,21.98
2022-08-26T01:50:30.225Z,23.77
2022-08-26T01:53:01.848Z,16.33
2022-08-26T01:55:33.490Z,19.88
2022-08-26T01:58:06.185Z,20.55
2022-08-26T02:00:34.891Z,21.00
2022-08-26T02:03:17.660Z,20.70
2022-08-26T02:05:48.755Z,21.83
2022-08-26T02:08:22.721Z,23.90
2022-08-26T02:10:51.850Z,20.25
2022-08-26T02:13:23.026Z,24.55
2022-08-26T02:15:52.261Z,21.90
2022-08-26T02:18:19.330Z,19.88
2022-08-26T02:20:46.201Z,24.13
2022-08-26T02:23:12.899Z,21.88
2022-08-26T02:25:51.856Z,23.52
2022-08-26T02:28:19.793Z,20.63
2022-08-26T02:30:47.253Z,23.10
2022-08-26T02:33:14.380Z,24.15
2022-08-26T02:35:41.265Z,22.63
2022-08-26T02:38:11.086Z,21.45
2022-08-26T02:40:40.930Z,23.02
2022-08-26T02:43:08.954Z,22.05
2022-08-26T02:45:36.049Z,18.08
2022-08-26T02:48:12.362Z,21.27
2022-08-26T02:50:39.325Z,15.18
2022-08-26T02:53:08.976Z,21.13
2022-08-26T02:55:36.664Z,24.77
2022-08-26T02:58:04.463Z,23.77
2022-08-26T03:00:31.785Z,20.13
2022-08-26T03:02:59.675Z,20.00
2022-08-26T03:05:26.546Z,26.92
2022-08-26T03:07:53.269Z,14.43
2022-08-26T03:10:21.793Z,18.67
2022-08-26T03:12:48.549Z,23.75
2022-08-26T03:15:18.462Z,29.80
2022-08-26T03:17:47.331Z,21.23
2022-08-26T03:20:15.529Z,24.30
2022-08-26T03:22:44.394Z,26.92
2022-08-26T03:25:14.230Z,17.63
2022-08-26T03:27:41.741Z,27.88
2022-08-26T03:30:29.546Z,27.67
2022-08-26T03:32:56.729Z,33.35
2022-08-26T03:35:23.409Z,25.30
2022-08-26T03:37:50.032Z,21.92
2022-08-26T03:40:20.315Z,24.10
2022-08-26T03:42:48.108Z,25.02
2022-08-26T03:45:16.925Z,26.48
2022-08-26T03:47:44.527Z,31.40
2022-08-26T03:50:14.084Z,19.90
2022-08-26T03:52:43.927Z,26.45
2022-08-26T03:57:37.616Z,21.50
2022-08-26T04:00:06.690Z,25.52
2022-08-26T04:02:33.400Z,22.98
2022-08-26T04:05:00.168Z,24.70
2022-08-26T04:07:26.948Z,29.05
2022-08-26T04:09:57.912Z,28.75
2022-08-26T04:12:25.561Z,26.65
2022-08-26T04:14:53.582Z,29.77
2022-08-26T04:17:24.991Z,28.17
2022-08-26T04:19:55.116Z,29.60
2022-08-26T04:22:24.912Z,31.85
2022-08-26T04:24:51.879Z,30.35
2022-08-26T04:27:19.078Z,30.88
2022-08-26T04:29:46.576Z,36.17
2022-08-26T04:32:14.836Z,28.20
2022-08-26T04:34:43.995Z,29.50
2022-08-26T04:37:11.878Z,33.28
2022-08-26T04:39:38.620Z,27.42
2022-08-26T04:42:05.980Z,33.70
2022-08-26T04:44:35.904Z,27.80
2022-08-26T04:47:02.995Z,28.17
2022-08-26T04:49:35.398Z,34.83
2022-08-26T04:52:03.321Z,28.60
2022-08-26T04:54:31.485Z,35.10
2022-08-26T04:56:58.229Z,32.90
2022-08-26T04:59:25.087Z,43.65
2022-08-26T05:01:53.925Z,25.80
2022-08-26T05:04:21.037Z,30.92
2022-08-26T05:06:48.397Z,36.03
2022-08-26T05:09:16.450Z,33.05
2022-08-26T05:11:43.290Z,29.95
2022-08-26T05:14:10.079Z,38.00
2022-08-26T05:16:37.635Z,35.15
2022-08-26T05:19:08.421Z,33.10
2022-08-26T05:21:35.924Z,32.78
2022-08-26T05:24:02.873Z,34.38
2022-08-26T05:26:31.116Z,30.42
2022-08-26T05:28:58.336Z,30.77
2022-08-26T05:31:29.014Z,23.38
2022-08-26T05:33:57.683Z,32.95
2022-08-26T05:36:27.536Z,28.27
2022-08-26T05:38:55.439Z,35.42
2022-08-26T05:41:36.173Z,33.35
2022-08-26T05:44:06.004Z,31.30
2022-08-26T05:46:33.474Z,32.73
2022-08-26T05:49:01.736Z,34.55
2022-08-26T05:51:30.365Z,31.88
2022-08-26T05:53:58.168Z,30.15
2022-08-26T05:56:26.147Z,30.17
2022-08-26T05:58:53.402Z,36.53
2022-08-26T06:01:23.721Z,36.65
2022-08-26T06:03:52.340Z,28.20
2022-08-26T06:06:29.809Z,29.42
2022-08-26T06:08:59.157Z,31.45
2022-08-26T06:11:27.676Z,36.20
2022-08-26T06:13:58.990Z,33.08
2022-08-26T06:16:27.134Z,26.52
2022-08-26T06:18:54.226Z,31.30
2022-08-26T06:21:25.929Z,32.03
2022-08-26T06:24:13.746Z,34.65
2022-08-26T06:26:42.742Z,32.15
2022-08-26T06:29:09.782Z,37.70
2022-08-26T06:31:37.168Z,37.20
2022-08-26T06:36:39.459Z,42.60
2022-08-26T06:39:10.255Z,46.95
2022-08-26T06:41:43.148Z,35.38
2022-08-26T06:44:10.611Z,35.33
2022-08-26T06:46:37.853Z,35.15
2022-08-26T06:49:05.593Z,40.72
2022-08-26T06:51:35.188Z,32.70
2022-08-26T06:54:03.434Z,40.28
2022-08-26T06:56:36.880Z,38.25
2022-08-26T06:59:04.651Z,34.95
2022-08-26T07:01:38.798Z,33.10
2022-08-26T07:04:10.945Z,36.45
2022-08-26T07:06:40.589Z,36.38
2022-08-26T07:09:09.954Z,37.28
2022-08-26T07:11:38.572Z,41.38
2022-08-26T07:14:06.185Z,38.10
2022-08-26T07:16:33.400Z,33.58
2022-08-26T07:19:01.167Z,33.72
2022-08-26T07:24:01.341Z,38.83
2022-08-26T07:26:30.680Z,35.67
2022-08-26T07:28:58.574Z,35.23
2022-08-26T07:31:27.854Z,40.15
2022-08-26T07:33:56.856Z,39.53
2022-08-26T07:36:24.591Z,30.25
2022-08-26T07:38:52.704Z,35.25
2022-08-26T07:41:22.955Z,36.65
2022-08-26T07:43:50.678Z,36.28
2022-08-26T07:46:20.825Z,40.92
2022-08-26T07:48:54.630Z,34.33
2022-08-26T07:51:22.976Z,42.17
2022-08-26T07:53:52.311Z,36.17
2022-08-26T07:58:50.945Z,32.63
2022-08-26T08:01:26.934Z,34.58
2022-08-26T08:03:55.064Z,33.10
2022-08-26T08:06:27.235Z,30.15
2022-08-26T08:08:54.395Z,25.35
2022-08-26T08:11:21.651Z,29.50
2022-08-26T08:13:49.012Z,36.80
2022-08-26T08:16:15.798Z,32.25
2022-08-26T08:18:42.449Z,37.53
2022-08-26T08:21:21.913Z,46.83
2022-08-26T08:23:58.849Z,34.90
2022-08-26T08:26:39.933Z,34.72
2022-08-26T08:29:08.762Z,33.38
2022-08-26T08:31:56.964Z,43.47
2022-08-26T08:34:30.973Z,31.38
2022-08-26T08:37:07.354Z,24.92
2022-08-26T08:39:42.926Z,32.43
2022-08-26T08:43:00.946Z,32.30
2022-08-26T08:45:53.995Z,30.83
2022-08-26T08:48:39.884Z,32.35
2022-08-26T08:51:20.897Z,24.30
2022-08-26T08:53:49.616Z,29.88
2022-08-26T08:56:53.854Z,28.92
2022-08-26T08:59:47.522Z,26.17
2022-08-26T09:02:31.921Z,35.65
2022-08-26T09:05:05.272Z,18.80
2022-08-26T09:07:54.864Z,30.65
2022-08-26T09:10:33.977Z,21.88
2022-08-26T09:13:06.250Z,32.28
2022-08-26T09:15:58.630Z,38.85
2022-08-26T09:18:54.605Z,28.95
2022-08-26T09:21:25.242Z,33.33
2022-08-26T09:23:55.388Z,33.65
2022-08-26T09:26:29.166Z,26.48
2022-08-26T09:29:03.413Z,22.85
2022-08-26T09:31:34.183Z,27.35
2022-08-26T09:34:17.997Z,25.50
2022-08-26T09:36:55.084Z,32.78
2022-08-26T09:39:24.952Z,32.70
2022-08-26T09:44:57.326Z,24.73
2022-08-26T09:47:31.991Z,32.03
2022-08-26T09:50:12.392Z,32.17
2022-08-26T09:52:40.501Z,30.90
2022-08-26T09:55:21.086Z,30.60
2022-08-26T09:57:54.014Z,24.92
2022-08-26T10:00:26.338Z,28.67
2022-08-26T10:02:56.129Z,34.58
2022-08-26T10:05:58.456Z,23.13
2022-08-26T10:08:31.874Z,32.17
2022-08-26T10:11:02.564Z,25.67
2022-08-26T10:13:37.552Z,30.08
2022-08-26T10:16:18.775Z,32.60
2022-08-26T10:19:06.447Z,30.95
2022-08-26T10:21:38.954Z,29.10
2022-08-26T10:24:07.419Z,31.90
2022-08-26T10:27:10.523Z,25.83
2022-08-26T10:29:42.607Z,27.30
2022-08-26T10:32:37.420Z,21.55
2022-08-26T10:35:12.476Z,35.78
2022-08-26T10:37:45.751Z,28.42
2022-08-26T10:40:51.792Z,30.67
2022-08-26T10:43:27.262Z,27.02
2022-08-26T10:46:17.175Z,28.45
2022-08-26T10:48:53.801Z,26.02
2022-08-26T10:51:26.854Z,34.50
2022-08-26T10:54:24.145Z,33.40
2022-08-26T10:57:19.360Z,36.22
2022-08-26T10:59:56.461Z,30.13
2022-08-26T11:02:33.496Z,21.08
2022-08-26T11:05:06.072Z,31.27
2022-08-26T11:08:19.933Z,34.25
2022-08-26T11:10:55.310Z,27.38
2022-08-26T11:13:58.171Z,27.02
2022-08-26T11:16:43.709Z,30.67
2022-08-26T11:19:56.732Z,21.60
2022-08-26T11:25:18.211Z,21.08
2022-08-26T11:27:48.170Z,25.70
2022-08-26T11:30:15.906Z,28.48
2022-08-26T11:32:49.754Z,23.25
2022-08-26T11:35:19.782Z,29.65
2022-08-26T11:38:22.789Z,23.98
2022-08-26T11:41:10.124Z,31.88
2022-08-26T11:43:38.696Z,26.10
2022-08-26T11:46:09.176Z,27.60
2022-08-26T11:48:43.382Z,28.98
2022-08-26T11:51:24.567Z,24.45
2022-08-26T11:53:51.409Z,22.65
2022-08-26T11:56:28.855Z,26.65
2022-08-26T11:59:01.973Z,19.25
2022-08-26T12:01:35.752Z,20.80
2022-08-26T12:04:08.158Z,29.45
2022-08-26T12:06:45.100Z,21.38
2022-08-26T12:09:22.660Z,28.25
2022-08-26T12:11:49.690Z,19.02
2022-08-26T12:14:24.319Z,29.75
2022-08-26T12:16:54.021Z,15.88
2022-08-26T12:22:24.602Z,17.60
2022-08-26T12:24:56.766Z,18.75
2022-08-26T12:27:32.554Z,21.95
2022-08-26T12:30:14.028Z,18.27
2022-08-26T12:33:22.470Z,18.88
2022-08-26T12:35:54.316Z,25.08
2022-08-26T12:38:25.197Z,22.70
2022-08-26T12:40:52.393Z,26.33
2022-08-26T12:43:43.428Z,20.30
2022-08-26T12:46:29.508Z,23.52
2022-08-26T12:49:01.122Z,24.30
2022-08-26T12:51:30.788Z,19.77
2022-08-26T12:53:58.411Z,18.85
2022-08-26T12:56:39.432Z,10.25
2022-08-26T12:59:24.414Z,11.57
2022-08-26T13:01:51.976Z,15.07
2022-08-26T13:04:41.922Z,10.27
2022-08-26T13:07:26.353Z,9.90
2022-08-26T13:09:58.761Z,16.13
2022-08-26T13:12:31.907Z,10.32
2022-08-26T13:15:00.096Z,11.90
2022-08-26T13:17:28.342Z,10.18
2022-08-26T13:19:58.022Z,10.20
2022-08-26T13:22:26.902Z,13.00
2022-08-26T13:24:56.612Z,13.10
2022-08-26T13:27:26.251Z,16.42
2022-08-26T13:29:53.952Z,11.57
2022-08-26T13:32:22.598Z,10.82
2022-08-26T13:34:56.339Z,12.05
2022-08-26T13:37:34.076Z,12.50
2022-08-26T13:40:01.869Z,10.52
2022-08-26T13:42:29.311Z,14.10
2022-08-26T13:44:58.129Z,11.32
2022-08-26T13:47:25.960Z,10.13
2022-08-26T13:49:54.611Z,11.35
2022-08-26T13:52:30.888Z,14.57
2022-08-26T13:54:59.140Z,10.32
2022-08-26T13:57:27.959Z,11.65
2022-08-26T13:59:56.480Z,10.75
2022-08-26T14:02:23.297Z,12.82
2022-08-26T14:04:50.142Z,12.45
2022-08-26T14:07:16.795Z,9.55
2022-08-26T14:09:43.453Z,10.35
2022-08-26T14:12:10.098Z,13.43
2022-08-26T14:14:36.730Z,9.20
2022-08-26T14:17:03.661Z,14.80
2022-08-26T14:19:31.238Z,10.27
2022-08-26T14:22:00.697Z,9.18
2022-08-26T14:24:28.816Z,7.38
2022-08-26T14:26:55.656Z,9.52
2022-08-26T14:29:22.408Z,9.82
2022-08-26T14:31:49.175Z,7.82
2022-08-26T14:34:16.055Z,10.15
2022-08-26T14:36:43.415Z,12.02
2022-08-26T14:39:12.089Z,11.40
2022-08-26T14:41:45.854Z,11.20
2022-08-26T14:44:21.458Z,10.40
2022-08-26T14:46:50.257Z,14.52
2022-08-26T14:49:18.308Z,9.95
2022-08-26T14:51:45.382Z,8.73
2022-08-26T14:54:13.045Z,15.50
2022-08-26T14:56:53.774Z,8.75
2022-08-26T14:59:42.194Z,10.90
2022-08-26T15:02:13.586Z,11.15
2022-08-26T15:04:41.658Z,10.80
2022-08-26T15:07:12.597Z,10.80
2022-08-26T15:09:39.609Z,14.05
2022-08-26T15:12:06.638Z,10.88
2022-08-26T15:14:33.358Z,10.98
2022-08-26T15:17:00.229Z,9.07
2022-08-26T15:19:27.525Z,12.10
2022-08-26T15:22:00.224Z,7.75
2022-08-26T15:24:28.872Z,10.80
2022-08-26T15:26:55.710Z,8.75
2022-08-26T15:29:24.017Z,8.02
2022-08-26T15:31:51.168Z,12.85
2022-08-26T15:34:18.408Z,12.73
2022-08-26T15:36:46.746Z,18.00
2022-08-26T15:39:15.334Z,15.38
2022-08-26T15:41:42.001Z,12.02
2022-08-26T15:44:10.296Z,7.88
2022-08-26T15:46:38.361Z,9.45
2022-08-26T15:49:06.347Z,12.00
2022-08-26T15:51:45.859Z,12.00
2022-08-26T15:54:13.473Z,11.48
2022-08-26T15:56:40.187Z,10.63
2022-08-26T15:59:08.043Z,11.27
2022-08-26T16:01:35.762Z,13.38
2022-08-26T16:04:02.937Z,13.13
2022-08-26T16:06:32.128Z,14.63
2022-08-26T16:08:59.604Z,15.77
2022-08-26T16:11:27.148Z,18.92
2022-08-26T16:13:54.004Z,12.65
2022-08-26T16:16:21.502Z,14.35
2022-08-26T16:18:48.504Z,18.42
2022-08-26T16:21:22.242Z,15.88
2022-08-26T16:23:49.410Z,16.30
2022-08-26T16:26:19.706Z,17.67
2022-08-26T16:28:47.423Z,13.25
2022-08-26T16:31:14.793Z,14.45
2022-08-26T16:33:41.729Z,17.33
2022-08-26T16:36:09.575Z,14.23
2022-08-26T16:38:37.597Z,10.13
2022-08-26T16:41:05.179Z,17.48
2022-08-26T16:43:31.996Z,15.70
2022-08-26T16:45:58.738Z,17.77
2022-08-26T16:48:26.740Z,15.30
2022-08-26T16:50:55.600Z,12.20
2022-08-26T16:53:23.294Z,13.23
2022-08-26T16:55:51.203Z,22.85
2022-08-26T16:58:21.071Z,15.63
2022-08-26T17:00:49.053Z,14.77
2022-08-26T17:03:15.952Z,17.80
2022-08-26T17:05:42.659Z,20.92
2022-08-26T17:08:09.543Z,24.50
2022-08-26T17:10:36.287Z,27.50
2022-08-26T17:13:03.120Z,23.52
2022-08-26T17:15:30.042Z,15.45
2022-08-26T17:17:57.141Z,14.93
2022-08-26T17:20:25.116Z,16.15
2022-08-26T17:22:53.736Z,16.13
2022-08-26T17:25:26.912Z,18.55
2022-08-26T17:27:54.117Z,15.18
2022-08-26T17:30:22.541Z,20.27
2022-08-26T17:32:49.207Z,19.48
2022-08-26T17:35:16.803Z,18.98
2022-08-26T17:37:44.350Z,21.55
2022-08-26T17:40:15.489Z,12.57
2022-08-26T17:42:42.340Z,15.55
2022-08-26T17:45:09.907Z,13.63
2022-08-26T17:47:36.718Z,18.42
2022-08-26T17:50:05.699Z,16.80
2022-08-26T17:52:32.579Z,17.67
2022-08-26T17:54:59.355Z,19.80
2022-08-26T17:57:27.068Z,17.42
2022-08-26T17:59:54.317Z,18.88
2022-08-26T18:02:21.672Z,18.80
2022-08-26T18:04:48.605Z,17.33
2022-08-26T18:07:15.879Z,15.95
2022-08-26T18:09:43.121Z,15.75
2022-08-26T18:12:10.620Z,17.35
2022-08-26T18:14:37.761Z,19.20
2022-08-26T18:17:04.716Z,15.10
2022-08-26T18:19:31.500Z,19.20
2022-08-26T18:21:58.557Z,17.23
2022-08-26T18:24:25.329Z,19.70
2022-08-26T18:26:52.021Z,17.48
2022-08-26T18:29:19.786Z,16.65
2022-08-26T18:31:46.569Z,14.95
2022-08-26T18:34:15.496Z,12.40
2022-08-26T18:36:42.862Z,12.73
2022-08-26T18:39:10.701Z,16.92
2022-08-26T18:41:47.020Z,14.38
2022-08-26T18:44:16.374Z,14.15
2022-08-26T18:46:45.085Z,18.80
2022-08-26T18:49:13.868Z,14.68
2022-08-26T18:51:41.397Z,13.18
2022-08-26T18:54:08.554Z,20.95
2022-08-26T18:56:37.165Z,17.33
2022-08-26T18:59:06.141Z,16.30
2022-08-26T19:01:34.174Z,15.25
2022-08-26T19:04:02.877Z,17.00
2022-08-26T19:06:32.842Z,16.52
2022-08-26T19:09:00.478Z,13.60
2022-08-26T19:11:31.556Z,18.48
2022-08-26T19:14:00.317Z,14.23
2022-08-26T19:16:27.980Z,14.68
2022-08-26T19:18:56.180Z,13.82
2022-08-26T19:21:23.564Z,16.98
2022-08-26T19:23:51.086Z,17.02
2022-08-26T19:26:18.554Z,16.73
2022-08-26T19:28:45.325Z,17.00
2022-08-26T19:31:12.374Z,14.55
2022-08-26T19:33:41.819Z,15.13
2022-08-26T19:36:14.839Z,20.33
2022-08-26T19:38:42.748Z,15.13
2022-08-26T19:41:18.992Z,14.20
2022-08-26T19:43:46.235Z,14.18
2022-08-26T19:46:18.002Z,16.02
2022-08-26T19:48:45.581Z,16.15
2022-08-26T19:51:27.318Z,16.90
2022-08-26T19:53:57.376Z,15.80
2022-08-26T19:56:24.888Z,17.58
2022-08-26T19:58:51.948Z,18.45
2022-08-26T20:01:19.329Z,21.58
2022-08-26T20:03:46.342Z,18.20
2022-08-26T20:06:15.247Z,20.88
2022-08-26T20:08:43.003Z,17.20
2022-08-26T20:11:14.579Z,20.02
2022-08-26T20:13:42.440Z,17.33
2022-08-26T20:16:13.157Z,15.82
2022-08-26T20:19:00.709Z,19.13
2022-08-26T20:21:29.373Z,13.90
2022-08-26T20:24:08.438Z,20.58
2022-08-26T20:26:37.599Z,19.27
2022-08-26T20:29:05.297Z,19.33
2022-08-26T20:31:32.429Z,21.27
2022-08-26T20:33:59.138Z,17.77
2022-08-26T20:36:29.774Z,17.55
2022-08-26T20:38:57.449Z,20.15
2022-08-26T20:41:25.620Z,18.52
2022-08-26T20:43:56.105Z,17.60
2022-08-26T20:46:25.023Z,23.65
2022-08-26T20:48:53.079Z,20.15
2022-08-26T20:51:21.200Z,19.88
2022-08-26T20:53:47.864Z,17.85
2022-08-26T20:56:23.489Z,16.98
2022-08-26T20:58:52.453Z,17.77
2022-08-26T21:01:24.768Z,16.52
2022-08-26T21:03:52.500Z,16.95
2022-08-26T21:06:19.652Z,15.75
2022-08-26T21:08:48.335Z,20.23
2022-08-26T21:11:17.264Z,18.20
2022-08-26T21:14:04.071Z,18.25
2022-08-26T21:16:31.533Z,17.85
2022-08-26T21:18:58.291Z,16.88
2022-08-26T21:21:27.608Z,18.27
2022-08-26T21:23:54.848Z,17.20
2022-08-26T21:26:21.680Z,19.15
2022-08-26T21:28:48.768Z,19.38
2022-08-26T21:31:18.605Z,18.80
2022-08-26T21:33:45.362Z,25.63
2022-08-26T21:36:13.214Z,19.17
2022-08-26T21:38:40.828Z,22.17
2022-08-26T21:41:11.892Z,18.55
2022-08-26T21:43:39.525Z,18.33
2022-08-26T21:46:14.561Z,18.50
2022-08-26T21:48:45.726Z,19.67
2022-08-26T21:51:16.985Z,20.17
2022-08-26T21:53:43.670Z,19.15
2022-08-26T21:56:15.090Z,20.65
2022-08-26T21:58:42.118Z,22.10
2022-08-26T22:01:14.471Z,23.65
2022-08-26T22:03:46.908Z,16.67
2022-08-26T22:06:15.994Z,24.50
2022-08-26T22:08:42.688Z,21.30
2022-08-26T22:11:10.476Z,20.20
2022-08-26T22:13:39.108Z,25.80
2022-08-26T22:16:06.641Z,20.73
2022-08-26T22:18:34.322Z,24.92
2022-08-26T22:21:04.221Z,19.27
2022-08-26T22:23:31.044Z,25.83
2022-08-26T22:25:58.045Z,23.33
2022-08-26T22:28:25.102Z,29.45
2022-08-26T22:30:52.413Z,24.10
2022-08-26T22:33:19.730Z,24.02
2022-08-26T22:35:48.920Z,20.35
2022-08-26T22:38:15.962Z,21.80
2022-08-26T22:40:45.381Z,19.33
2022-08-26T22:43:12.878Z,20.83
2022-08-26T22:45:45.570Z,19.67
2022-08-26T22:48:15.551Z,21.50
2022-08-26T22:50:47.366Z,21.63
2022-08-26T22:53:16.150Z,17.60
2022-08-26T22:55:43.583Z,18.33
2022-08-26T22:58:12.487Z,19.80
2022-08-26T23:00:40.027Z,18.52
2022-08-26T23:03:07.418Z,18.70
2022-08-26T23:05:34.770Z,17.50
2022-08-26T23:08:01.824Z,19.38
2022-08-26T23:10:28.562Z,19.77
2022-08-26T23:12:55.345Z,19.73
2022-08-26T23:15:22.416Z,20.55
2022-08-26T23:17:51.374Z,18.50
2022-08-26T23:20:26.896Z,17.83
2022-08-26T23:22:54.007Z,16.77
2022-08-26T23:25:20.934Z,17.38
2022-08-26T23:27:47.777Z,16.23
2022-08-26T23:30:19.333Z,20.42
2022-08-26T23:32:45.999Z,18.15
2022-08-26T23:35:14.288Z,20.60
2022-08-26T23:37:44.095Z,24.95
2022-08-26T23:40:19.422Z,17.17
2022-08-26T23:42:46.105Z,19.85
2022-08-26T23:45:13.800Z,17.00
2022-08-26T23:47:41.246Z,20.20
2022-08-26T23:50:09.021Z,17.42
2022-08-26T23:52:54.330Z,17.95
2022-08-26T23:55:23.208Z,21.08
2022-08-26T23:57:50.374Z,16.63
